Time;durP1;ratioP1;P1;durP2;ratioP2;P2;SDS_P1;SDS_P2;PMS_P1;PMS_P2;Temp;Humidity;BMP_temperature;BMP_pressure;BME280_temperature;BME280_humidity;BME280_pressure;Samples;Min_cycle;Max_cycle;Signal;HPM_P1;HPM_P2
2020/12/24 00:02:26;;;;;;;1.70;1.30;;;9.30;98.20;;;;;;5031647;28;20978;-80
2020/12/24 00:04:52;;;;;;;1.60;1.17;;;9.30;98.20;;;;;;5033353;28;20495;-79
2020/12/24 00:07:19;;;;;;;1.70;1.20;;;9.20;98.20;;;;;;5026804;28;21064;-80
2020/12/24 00:09:45;;;;;;;1.63;1.20;;;9.20;98.20;;;;;;5030077;28;20488;-79
2020/12/24 00:12:12;;;;;;;1.60;1.20;;;9.20;98.20;;;;;;5031309;28;20553;-81
2020/12/24 00:14:39;;;;;;;1.60;1.10;;;9.20;98.20;;;;;;5028524;28;20486;-78
2020/12/24 00:17:06;;;;;;;1.63;1.20;;;9.10;98.20;;;;;;5025907;28;20538;-78
2020/12/24 00:19:33;;;;;;;1.70;1.30;;;9.10;98.20;;;;;;5032797;28;20954;-81
2020/12/24 00:21:59;;;;;;;1.67;1.20;;;9.10;98.20;;;;;;5032744;28;20542;-81
2020/12/24 00:24:26;;;;;;;1.60;1.20;;;9.10;98.20;;;;;;5038650;28;20468;-80
2020/12/24 00:26:52;;;;;;;1.60;1.07;;;9.10;98.20;;;;;;5033346;28;20468;-81
2020/12/24 00:29:19;;;;;;;1.63;1.20;;;9.10;98.20;;;;;;5032603;28;20506;-78
2020/12/24 00:31:45;;;;;;;1.63;1.20;;;9.20;98.20;;;;;;5032910;28;20973;-78
2020/12/24 00:34:12;;;;;;;1.60;1.20;;;9.20;98.20;;;;;;5031927;28;20568;-79
2020/12/24 00:36:39;;;;;;;1.70;1.20;;;9.20;98.20;;;;;;5030388;28;20529;-79
2020/12/24 00:39:06;;;;;;;1.60;1.10;;;9.20;98.20;;;;;;5032304;28;20983;-80
2020/12/24 00:41:32;;;;;;;1.70;1.30;;;9.20;98.20;;;;;;5030010;28;20514;-79
2020/12/24 00:43:59;;;;;;;1.60;1.10;;;9.30;98.20;;;;;;5032751;28;20466;-81
2020/12/24 00:46:25;;;;;;;1.63;1.20;;;9.30;98.20;;;;;;5032074;28;20491;-80
2020/12/24 00:48:52;;;;;;;1.70;1.30;;;9.30;98.20;;;;;;5027950;28;20503;-80
2020/12/24 00:51:19;;;;;;;1.67;1.20;;;9.30;98.20;;;;;;5027407;28;20491;-79
2020/12/24 00:53:45;;;;;;;1.67;1.30;;;9.30;98.20;;;;;;5036438;28;21093;-79
2020/12/24 00:56:12;;;;;;;1.60;1.20;;;9.30;98.20;;;;;;5034912;28;20479;-79
2020/12/24 00:58:38;;;;;;;1.60;1.20;;;9.40;98.20;;;;;;5031922;28;20491;-81
2020/12/24 01:01:05;;;;;;;1.60;1.20;;;9.40;98.20;;;;;;5031039;28;20543;-80
2020/12/24 01:03:32;;;;;;;1.60;1.13;;;9.40;98.20;;;;;;5026078;28;21030;-80
2020/12/24 01:05:59;;;;;;;1.60;1.20;;;9.40;98.20;;;;;;5031123;28;20503;-79
2020/12/24 01:08:26;;;;;;;1.60;1.20;;;9.40;98.20;;;;;;5030145;28;20467;-80
2020/12/24 01:10:53;;;;;;;1.70;1.40;;;9.40;98.20;;;;;;5026846;28;20460;-80
2020/12/24 01:13:20;;;;;;;1.67;1.20;;;9.40;98.20;;;;;;5030588;28;20484;-79
2020/12/24 01:15:46;;;;;;;1.67;1.20;;;9.40;98.20;;;;;;5026732;28;20492;-79
2020/12/24 01:18:13;;;;;;;1.60;1.10;;;9.40;98.20;;;;;;5031843;28;20499;-81
2020/12/24 01:20:39;;;;;;;1.63;1.20;;;9.40;98.20;;;;;;5021517;28;20464;-81
2020/12/24 01:23:06;;;;;;;1.67;1.20;;;9.40;98.20;;;;;;5033055;28;20478;-80
2020/12/24 01:25:33;;;;;;;1.70;1.20;;;9.40;98.20;;;;;;5040553;28;20550;-79
2020/12/24 01:28:00;;;;;;;1.60;1.10;;;9.40;98.20;;;;;;5032280;28;20468;-79
2020/12/24 01:30:26;;;;;;;1.70;1.40;;;9.40;98.20;;;;;;5026471;28;20502;-79
2020/12/24 01:32:53;;;;;;;1.67;1.20;;;9.40;98.20;;;;;;5029242;28;20487;-81
2020/12/24 01:35:20;;;;;;;1.70;1.30;;;9.40;98.20;;;;;;5030099;28;20463;-80
2020/12/24 01:37:46;;;;;;;1.70;1.30;;;9.40;98.20;;;;;;5030285;28;20510;-80
2020/12/24 01:40:13;;;;;;;1.60;1.20;;;9.30;98.20;;;;;;5029824;28;20460;-79
2020/12/24 01:42:40;;;;;;;1.70;1.37;;;9.40;98.20;;;;;;5030975;28;20518;-80
2020/12/24 01:45:07;;;;;;;1.60;1.20;;;9.40;98.20;;;;;;5029151;28;20558;-80
2020/12/24 01:47:34;;;;;;;1.60;1.20;;;9.30;98.20;;;;;;5026775;28;20518;-80
2020/12/24 01:50:01;;;;;;;1.60;1.17;;;9.30;98.20;;;;;;5024263;28;20494;-79
2020/12/24 01:52:32;;;;;;;1.63;1.20;;;9.40;98.20;;;;;;5035629;28;20515;-80
2020/12/24 01:55:00;;;;;;;1.67;1.20;;;9.40;98.20;;;;;;5040554;28;20507;-77
2020/12/24 01:57:26;;;;;;;1.70;1.20;;;9.40;98.20;;;;;;5027119;28;20911;-80
2020/12/24 01:59:55;;;;;;;1.67;1.23;;;9.40;98.20;;;;;;5026422;28;20491;-80
2020/12/24 02:02:22;;;;;;;1.63;1.20;;;9.30;98.20;;;;;;5029550;28;20574;-80
2020/12/24 02:04:49;;;;;;;1.60;1.20;;;9.30;98.20;;;;;;5026600;28;20514;-78
2020/12/24 02:07:17;;;;;;;1.63;1.20;;;9.30;98.20;;;;;;5024004;28;20554;-79
2020/12/24 02:09:48;;;;;;;1.63;1.20;;;9.20;98.20;;;;;;5028631;28;20466;-81
2020/12/24 02:12:15;;;;;;;1.60;1.20;;;9.20;98.20;;;;;;5030482;28;20523;-79
2020/12/24 02:14:42;;;;;;;1.67;1.20;;;9.20;98.20;;;;;;5022897;28;20486;-81
2020/12/24 02:17:10;;;;;;;1.70;1.30;;;9.20;98.20;;;;;;5025755;28;20522;-80
2020/12/24 02:19:37;;;;;;;1.60;1.20;;;9.20;98.20;;;;;;5027078;28;20471;-79
2020/12/24 02:22:04;;;;;;;1.60;1.20;;;9.20;98.20;;;;;;5022587;28;20533;-80
2020/12/24 02:24:31;;;;;;;1.60;1.20;;;9.20;98.20;;;;;;5028578;28;20513;-78
2020/12/24 02:26:57;;;;;;;1.60;1.20;;;9.20;98.20;;;;;;5037624;28;20463;-81
2020/12/24 02:29:24;;;;;;;1.60;1.10;;;9.20;98.20;;;;;;5031413;28;20470;-80
2020/12/24 02:31:51;;;;;;;3.67;3.30;;;9.20;98.20;;;;;;5028403;28;20489;-80
2020/12/24 02:34:17;;;;;;;1.67;1.20;;;9.20;98.20;;;;;;5029901;28;20575;-79
2020/12/24 02:36:44;;;;;;;1.67;1.23;;;9.20;98.20;;;;;;5028864;28;20499;-80
2020/12/24 02:39:11;;;;;;;1.67;1.20;;;9.20;98.20;;;;;;5030697;28;20573;-79
2020/12/24 02:41:37;;;;;;;1.63;1.13;;;9.20;98.20;;;;;;5027756;28;21171;-81
2020/12/24 02:44:04;;;;;;;1.67;1.20;;;9.20;98.20;;;;;;5030265;28;20463;-79
2020/12/24 02:46:30;;;;;;;1.60;1.20;;;9.20;98.20;;;;;;5029607;28;20901;-81
2020/12/24 02:48:57;;;;;;;1.63;1.30;;;9.30;98.20;;;;;;5030436;28;20971;-79
2020/12/24 02:51:23;;;;;;;1.70;1.30;;;9.30;98.20;;;;;;5028016;28;20515;-81
2020/12/24 02:53:50;;;;;;;1.60;1.10;;;9.30;98.20;;;;;;5036978;28;20514;-81
2020/12/24 02:56:17;;;;;;;1.60;1.20;;;9.30;98.20;;;;;;5033982;28;20530;-79
2020/12/24 02:58:43;;;;;;;1.60;1.20;;;9.30;98.20;;;;;;5029364;28;21053;-81
2020/12/24 03:01:10;;;;;;;1.60;1.20;;;9.30;98.20;;;;;;5029443;28;20917;-82
2020/12/24 03:03:36;;;;;;;1.70;1.30;;;9.30;98.20;;;;;;5029733;28;20487;-81
2020/12/24 03:06:03;;;;;;;1.63;1.20;;;9.30;98.20;;;;;;5029662;28;20491;-81
2020/12/24 03:08:29;;;;;;;1.60;1.20;;;9.20;98.20;;;;;;5028602;28;20467;-81
2020/12/24 03:10:56;;;;;;;1.70;1.20;;;9.20;98.20;;;;;;5029334;28;20510;-82
2020/12/24 03:13:23;;;;;;;1.70;1.20;;;9.20;98.20;;;;;;5029007;28;20479;-79
2020/12/24 03:15:49;;;;;;;1.60;1.20;;;9.20;98.20;;;;;;5030015;28;20460;-79
2020/12/24 03:18:16;;;;;;;1.70;1.20;;;9.20;98.20;;;;;;5029705;28;20495;-81
2020/12/24 03:20:42;;;;;;;1.60;1.20;;;9.20;98.20;;;;;;5027727;28;20461;-82
2020/12/24 03:23:12;;;;;;;1.60;1.10;;;9.10;98.20;;;;;;5032848;28;20485;-81
2020/12/24 03:25:38;;;;;;;1.67;1.20;;;9.10;98.20;;;;;;5031770;28;20484;-80
2020/12/24 03:28:04;;;;;;;1.63;1.17;;;9.10;98.20;;;;;;5030968;28;20962;-79
2020/12/24 03:30:32;;;;;;;1.63;1.20;;;9.10;98.20;;;;;;5034565;28;20499;-78
2020/12/24 03:32:58;;;;;;;1.70;1.30;;;9.10;98.20;;;;;;5032916;28;20495;-78
2020/12/24 03:35:25;;;;;;;1.70;1.40;;;9.10;98.20;;;;;;5033198;28;20460;-79
2020/12/24 03:37:51;;;;;;;1.60;1.20;;;9.10;98.20;;;;;;5034069;28;20494;-78
2020/12/24 03:40:18;;;;;;;1.67;1.20;;;9.00;98.20;;;;;;5035329;28;20963;-79
2020/12/24 03:42:44;;;;;;;1.60;1.20;;;9.00;98.20;;;;;;5030535;28;20863;-80
2020/12/24 03:45:11;;;;;;;1.70;1.30;;;9.00;98.20;;;;;;5033099;28;20464;-81
2020/12/24 03:47:39;;;;;;;1.60;1.20;;;9.00;98.20;;;;;;5034124;28;20495;-81
2020/12/24 03:50:06;;;;;;;1.70;1.30;;;9.00;98.20;;;;;;5034107;28;20479;-80
2020/12/24 03:52:32;;;;;;;1.67;1.20;;;8.90;98.20;;;;;;5035682;28;20494;-79
2020/12/24 03:54:59;;;;;;;1.60;1.17;;;8.90;98.20;;;;;;5038745;28;20515;-80
2020/12/24 03:57:25;;;;;;;1.60;1.20;;;8.90;98.20;;;;;;5033667;28;20471;-80
2020/12/24 03:59:52;;;;;;;1.63;1.20;;;8.90;98.20;;;;;;5031681;28;21117;-80
2020/12/24 04:02:18;;;;;;;1.60;1.20;;;8.90;98.20;;;;;;5030815;28;20518;-81
2020/12/24 04:04:45;;;;;;;1.70;1.30;;;8.90;98.20;;;;;;5030600;28;20484;-79
2020/12/24 04:07:12;;;;;;;1.63;1.20;;;8.90;98.20;;;;;;5032525;28;20492;-78
2020/12/24 04:09:38;;;;;;;1.60;1.20;;;8.90;98.20;;;;;;5030687;28;20490;-79
2020/12/24 04:12:05;;;;;;;1.70;1.30;;;8.90;98.20;;;;;;5029195;28;20480;-78
2020/12/24 04:14:31;;;;;;;1.70;1.33;;;8.90;98.20;;;;;;5028534;28;20522;-80
2020/12/24 04:16:58;;;;;;;1.63;1.23;;;8.90;98.20;;;;;;5033467;28;20880;-80
2020/12/24 04:19:24;;;;;;;1.70;1.20;;;8.90;98.20;;;;;;5031093;28;20495;-81
2020/12/24 04:21:51;;;;;;;1.63;1.20;;;8.90;98.20;;;;;;5028974;28;20502;-80
2020/12/24 04:24:18;;;;;;;1.63;1.20;;;8.90;98.20;;;;;;5043849;28;20518;-79
2020/12/24 04:26:44;;;;;;;1.67;1.20;;;8.90;98.20;;;;;;5031798;28;20978;-80
2020/12/24 04:29:11;;;;;;;1.60;1.10;;;8.90;98.20;;;;;;5031533;28;20521;-77
2020/12/24 04:31:42;;;;;;;1.60;1.20;;;8.90;98.20;;;;;;5027947;28;20487;-78
2020/12/24 04:34:09;;;;;;;1.60;1.10;;;8.90;98.20;;;;;;5028697;28;20490;-80
2020/12/24 04:36:35;;;;;;;1.70;1.20;;;8.90;98.20;;;;;;5028880;28;20491;-81
2020/12/24 04:39:04;;;;;;;1.63;1.10;;;8.90;98.20;;;;;;5029439;28;20503;-80
2020/12/24 04:41:30;;;;;;;1.60;1.20;;;8.90;98.20;;;;;;5027831;28;20491;-78
2020/12/24 04:43:58;;;;;;;1.70;1.40;;;8.90;98.20;;;;;;5033203;28;21138;-78
2020/12/24 04:46:28;;;;;;;1.60;1.20;;;8.90;98.20;;;;;;5029827;28;20503;-79
2020/12/24 04:48:57;;;;;;;1.67;1.23;;;8.90;98.20;;;;;;5027197;28;20491;-80
2020/12/24 04:51:24;;;;;;;1.67;1.20;;;8.90;98.20;;;;;;5030116;28;20488;-81
2020/12/24 04:53:51;;;;;;;1.60;1.20;;;8.80;98.20;;;;;;5041422;28;20498;-80
2020/12/24 04:56:18;;;;;;;1.60;1.20;;;8.80;98.20;;;;;;5034952;28;20895;-80
2020/12/24 04:58:45;;;;;;;1.70;1.30;;;8.80;98.20;;;;;;5030842;28;20569;-78
2020/12/24 05:01:15;;;;;;;1.70;1.37;;;8.80;98.20;;;;;;5031591;28;20559;-80
2020/12/24 05:03:41;;;;;;;1.60;1.20;;;8.80;98.20;;;;;;5031827;28;20585;-80
2020/12/24 05:06:13;;;;;;;1.67;1.30;;;8.80;98.20;;;;;;5027162;28;20542;-80
2020/12/24 05:08:39;;;;;;;1.60;1.20;;;8.80;98.20;;;;;;5030210;28;20503;-78
2020/12/24 05:11:07;;;;;;;1.60;1.20;;;8.70;98.20;;;;;;5031742;28;21156;-81
2020/12/24 05:13:35;;;;;;;1.70;1.20;;;8.70;98.20;;;;;;5028706;28;20480;-78
2020/12/24 05:16:14;;;;;;;1.60;1.20;;;8.70;98.20;;;;;;5027625;28;20555;-80
2020/12/24 05:18:40;;;;;;;1.67;1.27;;;8.70;98.20;;;;;;5030640;28;21080;-79
2020/12/24 05:21:07;;;;;;;1.67;1.30;;;8.70;98.20;;;;;;5031574;28;20507;-81
2020/12/24 05:23:33;;;;;;;1.60;1.20;;;8.70;98.20;;;;;;5037043;28;20490;-77
2020/12/24 05:26:00;;;;;;;1.60;1.20;;;8.70;98.20;;;;;;5034523;28;20499;-78
2020/12/24 05:28:27;;;;;;;1.70;1.30;;;8.60;98.20;;;;;;5030880;28;20488;-77
2020/12/24 05:30:55;;;;;;;1.70;1.30;;;8.60;98.20;;;;;;5024970;28;20464;-80
2020/12/24 05:33:29;;;;;;;1.60;1.20;;;8.60;98.20;;;;;;5025713;28;20468;-80
2020/12/24 05:36:15;;;;;;;1.67;1.20;;;8.60;98.20;;;;;;5031657;28;20557;-79
2020/12/24 05:38:41;;;;;;;1.60;1.20;;;8.60;98.20;;;;;;5027475;28;20465;-78
2020/12/24 05:41:26;;;;;;;1.60;1.20;;;8.60;98.20;;;;;;5029887;28;20456;-78
2020/12/24 05:43:55;;;;;;;1.67;1.30;;;8.50;98.20;;;;;;5031463;28;20491;-78
2020/12/24 05:46:23;;;;;;;1.60;1.20;;;8.50;98.20;;;;;;5027645;28;20459;-79
2020/12/24 05:48:50;;;;;;;1.60;1.20;;;8.50;98.20;;;;;;5026755;28;21032;-79
2020/12/24 05:51:18;;;;;;;1.60;1.20;;;8.50;98.20;;;;;;5026513;28;20782;-78
2020/12/24 05:53:45;;;;;;;1.60;1.20;;;8.50;98.20;;;;;;5030307;28;20483;-78
2020/12/24 05:56:20;;;;;;;1.60;1.20;;;8.50;98.20;;;;;;5030800;28;20664;-77
2020/12/24 05:58:47;;;;;;;1.60;1.20;;;8.40;98.20;;;;;;5029751;28;20837;-79
2020/12/24 06:01:15;;;;;;;1.60;1.10;;;8.40;98.20;;;;;;5028220;28;20472;-80
2020/12/24 06:04:03;;;;;;;1.67;1.20;;;8.40;98.20;;;;;;5029242;28;20489;-78
2020/12/24 06:06:43;;;;;;;1.60;1.20;;;8.40;98.20;;;;;;5028738;28;20464;-80
2020/12/24 06:09:13;;;;;;;1.67;1.30;;;8.40;98.20;;;;;;5037999;28;20469;-80
2020/12/24 06:11:46;;;;;;;1.70;1.30;;;8.40;98.20;;;;;;5036403;28;20754;-80
2020/12/24 06:14:30;;;;;;;1.60;1.20;;;8.40;98.20;;;;;;5031833;28;20487;-79
2020/12/24 06:17:03;;;;;;;1.63;1.20;;;8.40;98.20;;;;;;5029808;28;20461;-79
2020/12/24 06:19:38;;;;;;;1.70;1.30;;;8.40;98.20;;;;;;5026976;28;20473;-79
2020/12/24 06:22:04;;;;;;;1.70;1.30;;;8.40;98.20;;;;;;5041475;28;20488;-80
2020/12/24 06:24:32;;;;;;;1.60;1.20;;;8.30;98.20;;;;;;5036057;28;20452;-79
2020/12/24 06:27:03;;;;;;;1.70;1.30;;;8.30;98.20;;;;;;5035170;28;20466;-80
2020/12/24 06:29:33;;;;;;;1.67;1.20;;;8.30;98.20;;;;;;5037156;28;20836;-81
2020/12/24 06:32:00;;;;;;;1.60;1.20;;;8.30;98.20;;;;;;5030773;28;20488;-80
2020/12/24 06:34:29;;;;;;;1.63;1.20;;;8.30;98.20;;;;;;5034373;28;20944;-81
2020/12/24 06:36:56;;;;;;;1.60;1.20;;;8.30;98.20;;;;;;5048171;22;20505;-81
2020/12/24 06:39:43;;;;;;;1.60;1.20;;;8.30;98.20;;;;;;5037035;28;20459;-82
2020/12/24 06:42:44;;;;;;;1.70;1.30;;;8.30;98.20;;;;;;5031534;28;20479;-79
2020/12/24 06:45:12;;;;;;;1.63;1.30;;;8.30;98.20;;;;;;5031057;28;20456;-80
2020/12/24 06:47:40;;;;;;;1.70;1.30;;;8.30;98.20;;;;;;5024898;28;20500;-79
2020/12/24 06:50:33;;;;;;;1.60;1.20;;;8.30;98.20;;;;;;5034514;28;20522;-79
2020/12/24 06:53:28;;;;;;;1.60;1.20;;;8.30;98.20;;;;;;5033875;28;20572;-79
2020/12/24 06:56:23;;;;;;;1.60;1.17;;;8.30;98.20;;;;;;5030106;28;20463;-80
2020/12/24 06:58:52;;;;;;;1.67;1.30;;;8.30;98.20;;;;;;5033313;28;20517;-80
2020/12/24 07:01:20;;;;;;;1.70;1.37;;;8.30;98.20;;;;;;5035392;28;20480;-80
2020/12/24 07:03:54;;;;;;;1.60;1.20;;;8.30;98.20;;;;;;5039607;28;20467;-79
2020/12/24 07:09:46;;;;;;;3.10;2.90;;;8.30;98.20;;;;;;5033187;28;20499;-78
2020/12/24 07:12:39;;;;;;;1.63;1.20;;;8.30;98.20;;;;;;5029002;28;20515;-80
2020/12/24 07:15:22;;;;;;;1.60;1.20;;;8.30;98.20;;;;;;4996399;28;21094;-80
2020/12/24 07:17:55;;;;;;;1.70;1.30;;;8.30;98.20;;;;;;5028277;28;20464;-79
2020/12/24 07:20:23;;;;;;;1.70;1.33;;;8.30;98.20;;;;;;5033548;28;20455;-80
2020/12/24 07:22:56;;;;;;;1.60;1.20;;;8.30;98.20;;;;;;5032249;28;20820;-80
2020/12/24 07:25:24;;;;;;;1.70;1.30;;;8.30;98.20;;;;;;5036177;28;20502;-79
2020/12/24 07:27:52;;;;;;;1.70;1.30;;;8.30;98.20;;;;;;5023180;28;20461;-80
2020/12/24 07:30:22;;;;;;;1.60;1.20;;;8.30;98.20;;;;;;5032005;28;20467;-80
2020/12/24 07:32:56;;;;;;;1.67;1.30;;;8.30;98.20;;;;;;5035593;28;20977;-79
2020/12/24 07:35:23;;;;;;;1.63;1.20;;;8.30;98.20;;;;;;5039876;28;20490;-78
2020/12/24 07:37:50;;;;;;;1.60;1.20;;;8.30;98.20;;;;;;5032443;28;20468;-79
2020/12/24 07:40:17;;;;;;;1.63;1.20;;;8.30;98.20;;;;;;5031864;28;20841;-80
2020/12/24 07:42:45;;;;;;;1.63;1.20;;;8.30;98.20;;;;;;5032756;28;20522;-80
2020/12/24 07:45:13;;;;;;;1.60;1.20;;;8.30;98.20;;;;;;5033651;28;20464;-81
2020/12/24 07:47:48;;;;;;;1.63;1.27;;;8.30;98.20;;;;;;5031510;28;20472;-81
2020/12/24 07:50:15;;;;;;;1.63;1.20;;;8.30;98.20;;;;;;5040111;28;20811;-80
2020/12/24 07:52:46;;;;;;;1.63;1.20;;;8.30;98.20;;;;;;5033501;28;20510;-80
2020/12/24 07:55:13;;;;;;;1.63;1.20;;;8.30;98.20;;;;;;5032878;28;20514;-79
2020/12/24 07:57:39;;;;;;;1.67;1.27;;;8.30;98.20;;;;;;5030638;28;20819;-80
2020/12/24 08:00:07;;;;;;;1.70;1.30;;;8.30;98.20;;;;;;5030865;28;21046;-79
2020/12/24 08:02:33;;;;;;;1.70;1.20;;;8.30;98.20;;;;;;5028243;28;20503;-79
2020/12/24 08:05:00;;;;;;;1.60;1.20;;;8.40;98.20;;;;;;5035221;28;20963;-79
2020/12/24 08:07:26;;;;;;;1.63;1.30;;;8.40;98.20;;;;;;5038070;28;20463;-79
2020/12/24 08:09:53;;;;;;;1.60;1.20;;;8.40;98.20;;;;;;5030459;28;20460;-79
2020/12/24 08:12:24;;;;;;;1.60;1.20;;;8.40;98.20;;;;;;5032285;28;20491;-79
2020/12/24 08:14:51;;;;;;;1.60;1.20;;;8.40;98.20;;;;;;5031290;28;20492;-80
2020/12/24 08:17:30;;;;;;;1.63;1.20;;;8.40;98.20;;;;;;5029336;28;20475;-80
2020/12/24 08:20:06;;;;;;;1.60;1.10;;;8.50;98.20;;;;;;5023533;28;20507;-79
2020/12/24 08:22:43;;;;;;;2.00;1.57;;;8.50;98.20;;;;;;5034608;28;20478;-79
2020/12/24 08:25:09;;;;;;;1.63;1.20;;;8.50;98.20;;;;;;5033946;28;20496;-79
2020/12/24 08:27:36;;;;;;;1.60;1.20;;;8.50;98.20;;;;;;5029227;28;20916;-79
2020/12/24 08:30:06;;;;;;;1.60;1.20;;;8.50;98.20;;;;;;5032512;28;20495;-79
2020/12/24 08:32:34;;;;;;;1.70;1.30;;;8.60;98.20;;;;;;5036299;28;20483;-79
2020/12/24 08:35:09;;;;;;;1.60;1.20;;;8.60;98.20;;;;;;5029308;28;20856;-80
2020/12/24 08:37:36;;;;;;;1.60;1.20;;;8.60;98.20;;;;;;5027437;28;20490;-80
2020/12/24 08:40:18;;;;;;;1.63;1.20;;;8.60;98.20;;;;;;5033013;28;20950;-81
2020/12/24 08:42:47;;;;;;;1.70;1.30;;;8.70;98.20;;;;;;5031771;28;20499;-81
2020/12/24 08:45:14;;;;;;;1.60;1.10;;;8.70;98.20;;;;;;5032603;28;20535;-79
2020/12/24 08:47:42;;;;;;;1.63;1.20;;;8.70;98.20;;;;;;5030797;28;20467;-79
2020/12/24 08:50:08;;;;;;;1.70;1.30;;;8.70;98.20;;;;;;5035530;28;20459;-79
2020/12/24 08:52:36;;;;;;;1.63;1.20;;;8.70;98.20;;;;;;5033974;28;20484;-78
2020/12/24 08:55:05;;;;;;;1.60;1.10;;;8.70;98.20;;;;;;5029147;28;20569;-80
2020/12/24 08:57:32;;;;;;;1.60;1.20;;;8.60;98.20;;;;;;5030077;28;20827;-77
2020/12/24 09:00:00;;;;;;;1.70;1.30;;;8.50;98.20;;;;;;5033365;28;20498;-77
2020/12/24 09:02:27;;;;;;;1.67;1.20;;;8.30;98.20;;;;;;5028836;28;20561;-77
2020/12/24 09:04:56;;;;;;;1.70;1.30;;;8.20;98.20;;;;;;5028811;28;20534;-78
2020/12/24 09:07:27;;;;;;;1.70;1.30;;;8.00;98.20;;;;;;5028819;28;20491;-77
2020/12/24 09:10:10;;;;;;;1.63;1.20;;;7.90;98.20;;;;;;5019715;28;20753;-77
2020/12/24 09:12:39;;;;;;;1.63;1.30;;;7.70;98.20;;;;;;5033935;28;20514;-77
2020/12/24 09:18:28;;;;;;;1.63;1.20;;;7.40;98.20;;;;;;5011864;28;20431;-76
2020/12/24 09:20:55;;;;;;;1.63;1.20;;;7.30;98.20;;;;;;5018610;28;20987;-78
2020/12/24 09:23:21;;;;;;;1.67;1.30;;;7.20;98.20;;;;;;5023176;28;20867;-77
2020/12/24 09:25:48;;;;;;;1.70;1.40;;;7.20;98.20;;;;;;5030822;28;20494;-77
2020/12/24 09:28:22;;;;;;;1.60;1.20;;;7.10;98.20;;;;;;5020430;28;20476;-77
2020/12/24 09:30:50;;;;;;;1.60;1.20;;;7.00;98.20;;;;;;5024163;28;21000;-77
2020/12/24 09:33:27;;;;;;;1.63;1.30;;;6.90;98.20;;;;;;5026361;28;20498;-77
2020/12/24 09:35:57;;;;;;;1.60;1.30;;;6.90;98.20;;;;;;5023876;28;20471;-76
2020/12/24 09:38:23;;;;;;;1.63;1.27;;;6.90;98.20;;;;;;5029935;28;20478;-78
2020/12/24 09:40:50;;;;;;;1.60;1.20;;;6.80;98.20;;;;;;5030023;28;20509;-77
2020/12/24 09:43:16;;;;;;;1.63;1.30;;;6.70;98.20;;;;;;5032136;28;20502;-77
2020/12/24 09:45:42;;;;;;;1.63;1.27;;;6.70;98.20;;;;;;5023726;28;20502;-76
2020/12/24 09:48:12;;;;;;;1.70;1.30;;;6.70;98.20;;;;;;5032290;28;20486;-77
2020/12/24 09:50:40;;;;;;;1.60;1.20;;;6.70;98.20;;;;;;5031762;28;20526;-76
2020/12/24 09:53:07;;;;;;;1.70;1.30;;;6.70;98.20;;;;;;5024029;28;20867;-76
2020/12/24 09:55:34;;;;;;;1.67;1.30;;;6.70;98.20;;;;;;5023990;28;20545;-78
2020/12/24 09:58:00;;;;;;;1.70;1.30;;;6.70;98.20;;;;;;5034103;28;20953;-79
2020/12/24 10:00:27;;;;;;;1.63;1.23;;;6.60;98.20;;;;;;5023064;28;20464;-78
2020/12/24 10:02:53;;;;;;;1.70;1.50;;;6.50;98.20;;;;;;5021459;28;20549;-77
2020/12/24 10:05:19;;;;;;;1.70;1.30;;;6.40;98.20;;;;;;5028367;28;20463;-78
2020/12/24 10:07:46;;;;;;;1.60;1.30;;;6.40;98.20;;;;;;5029409;28;20495;-78
2020/12/24 10:10:13;;;;;;;1.60;1.30;;;6.40;98.20;;;;;;5025395;28;20498;-78
2020/12/24 10:12:40;;;;;;;1.70;1.30;;;6.30;98.20;;;;;;5027452;28;20490;-77
2020/12/24 10:15:06;;;;;;;1.70;1.30;;;6.30;98.20;;;;;;5032215;28;20578;-78
2020/12/24 10:17:32;;;;;;;1.60;1.30;;;6.30;98.20;;;;;;5034501;28;20503;-79
2020/12/24 10:19:59;;;;;;;1.70;1.40;;;6.30;98.20;;;;;;5031722;28;20843;-79
2020/12/24 10:22:25;;;;;;;1.70;1.40;;;6.40;98.20;;;;;;5038275;28;20565;-78
2020/12/24 10:24:52;;;;;;;1.70;1.30;;;6.40;98.20;;;;;;5036547;28;21177;-78
2020/12/24 10:27:20;;;;;;;1.70;1.40;;;6.40;98.20;;;;;;5028546;28;20503;-78
2020/12/24 10:29:46;;;;;;;1.67;1.30;;;6.40;98.20;;;;;;5029798;28;21000;-79
2020/12/24 10:32:13;;;;;;;1.63;1.30;;;6.40;98.20;;;;;;5028211;28;21210;-78
2020/12/24 10:34:39;;;;;;;1.70;1.40;;;6.40;98.20;;;;;;5026986;28;20495;-77
2020/12/24 10:37:06;;;;;;;1.60;1.30;;;6.50;98.20;;;;;;5028141;28;20510;-78
2020/12/24 10:39:32;;;;;;;1.70;1.30;;;6.50;98.20;;;;;;5028537;28;20472;-76
2020/12/24 10:41:59;;;;;;;1.70;1.40;;;6.50;98.20;;;;;;5025976;28;20518;-77
2020/12/24 10:44:26;;;;;;;1.70;1.30;;;6.50;98.20;;;;;;5039802;28;20487;-78
2020/12/24 10:46:56;;;;;;;1.70;1.40;;;6.60;98.20;;;;;;5034416;28;20470;-79
2020/12/24 10:49:24;;;;;;;1.60;1.30;;;6.60;98.20;;;;;;5026085;28;20482;-79
2020/12/24 10:51:50;;;;;;;1.60;1.27;;;6.60;98.20;;;;;;5033859;28;20507;-79
2020/12/24 10:54:17;;;;;;;1.60;1.30;;;6.60;98.20;;;;;;5041916;28;20546;-78
2020/12/24 10:56:46;;;;;;;1.70;1.40;;;6.60;98.20;;;;;;5029608;28;21112;-79
2020/12/24 10:59:13;;;;;;;1.70;1.40;;;6.70;98.20;;;;;;5025855;28;20460;-78
2020/12/24 11:01:45;;;;;;;1.63;1.30;;;6.70;98.20;;;;;;5029002;28;20569;-78
2020/12/24 11:04:12;;;;;;;1.60;1.23;;;6.80;98.20;;;;;;5030577;28;20486;-79
2020/12/24 11:06:42;;;;;;;1.67;1.30;;;6.80;98.20;;;;;;5030877;28;20459;-79
2020/12/24 11:09:12;;;;;;;1.60;1.30;;;6.90;98.20;;;;;;5029954;28;20550;-81
2020/12/24 11:11:39;;;;;;;1.67;1.30;;;6.90;98.20;;;;;;5037608;28;20475;-80
2020/12/24 11:14:06;;;;;;;1.63;1.30;;;6.90;98.20;;;;;;5039143;28;20484;-80
2020/12/24 11:16:32;;;;;;;1.63;1.30;;;6.90;98.20;;;;;;5022653;28;20574;-79
2020/12/24 11:19:00;;;;;;;1.60;1.20;;;6.90;98.20;;;;;;5028056;28;20467;-79
2020/12/24 11:21:29;;;;;;;1.70;1.30;;;6.90;98.20;;;;;;5036366;28;20517;-79
2020/12/24 11:23:56;;;;;;;1.63;1.30;;;6.90;98.20;;;;;;5040478;28;20536;-79
2020/12/24 11:26:23;;;;;;;1.70;1.30;;;6.90;98.20;;;;;;5028146;28;20743;-79
2020/12/24 11:28:49;;;;;;;1.70;1.30;;;6.90;98.20;;;;;;5024019;28;20471;-80
2020/12/24 11:31:22;;;;;;;1.63;1.30;;;6.80;98.20;;;;;;5030921;28;20487;-80
2020/12/24 11:33:49;;;;;;;1.67;1.37;;;6.80;98.20;;;;;;5032362;28;20930;-78
2020/12/24 11:36:17;;;;;;;1.70;1.30;;;6.80;98.20;;;;;;5031373;28;20471;-77
2020/12/24 11:38:43;;;;;;;1.60;1.30;;;6.70;98.20;;;;;;5021361;28;20506;-79
2020/12/24 11:41:13;;;;;;;1.63;1.20;;;6.70;98.20;;;;;;5023906;28;20913;-78
2020/12/24 11:43:43;;;;;;;1.67;1.27;;;6.60;98.20;;;;;;5028059;28;20472;-81
2020/12/24 11:46:13;;;;;;;1.60;1.30;;;6.60;98.20;;;;;;5025003;28;20475;-80
2020/12/24 11:48:40;;;;;;;1.60;1.20;;;6.50;98.20;;;;;;5017511;28;21404;-78
2020/12/24 11:51:09;;;;;;;1.60;1.20;;;6.50;98.20;;;;;;5027570;28;20521;-79
2020/12/24 11:53:37;;;;;;;1.60;1.30;;;6.60;98.20;;;;;;5035490;28;20479;-77
2020/12/24 11:56:04;;;;;;;1.63;1.30;;;6.50;98.20;;;;;;5034295;28;20480;-80
2020/12/24 11:58:30;;;;;;;1.67;1.30;;;6.50;98.20;;;;;;5023868;28;20501;-80
2020/12/24 12:00:56;;;;;;;1.70;1.40;;;6.50;98.20;;;;;;5033826;28;20456;-79
2020/12/24 12:03:23;;;;;;;1.70;1.40;;;6.50;98.20;;;;;;5028974;28;20500;-81
2020/12/24 12:05:53;;;;;;;1.67;1.30;;;6.40;98.20;;;;;;5029879;28;20555;-80
2020/12/24 12:08:19;;;;;;;1.67;1.30;;;6.50;98.20;;;;;;5022496;28;21169;-80
2020/12/24 12:10:46;;;;;;;1.60;1.30;;;6.40;98.20;;;;;;5028582;28;20626;-79
2020/12/24 12:13:14;;;;;;;1.60;1.20;;;6.40;98.20;;;;;;5029625;28;20480;-80
2020/12/24 12:15:42;;;;;;;1.70;1.30;;;6.30;98.20;;;;;;5023138;28;20480;-79
2020/12/24 12:18:09;;;;;;;1.70;1.33;;;6.30;98.20;;;;;;5024779;28;20561;-80
2020/12/24 12:20:36;;;;;;;1.70;1.30;;;6.20;98.20;;;;;;5024796;28;20841;-80
2020/12/24 12:23:05;;;;;;;1.63;1.30;;;6.20;98.20;;;;;;5021453;28;21267;-81
2020/12/24 12:25:31;;;;;;;1.70;1.20;;;6.20;98.20;;;;;;5022869;28;20491;-77
2020/12/24 12:27:59;;;;;;;1.63;1.30;;;6.20;98.20;;;;;;5027548;28;20471;-81
2020/12/24 12:30:25;;;;;;;1.67;1.30;;;6.20;98.20;;;;;;5024907;28;20645;-78
2020/12/24 12:32:51;;;;;;;1.67;1.30;;;6.20;98.20;;;;;;5029957;28;20500;-78
2020/12/24 12:35:19;;;;;;;1.67;1.30;;;6.10;98.20;;;;;;5024888;28;20555;-78
2020/12/24 12:37:46;;;;;;;1.70;1.33;;;6.10;98.20;;;;;;5024095;28;20476;-81
2020/12/24 12:40:12;;;;;;;1.60;1.30;;;6.10;98.20;;;;;;5023852;28;20515;-79
2020/12/24 12:42:39;;;;;;;1.63;1.30;;;6.10;98.20;;;;;;5033115;28;20562;-80
2020/12/24 12:45:08;;;;;;;1.63;1.30;;;6.10;98.20;;;;;;5023290;28;21305;-80
2020/12/24 12:47:38;;;;;;;1.60;1.30;;;6.10;98.20;;;;;;5026242;28;20502;-80
2020/12/24 12:50:06;;;;;;;1.67;1.30;;;6.20;98.20;;;;;;5019838;28;20538;-81
2020/12/24 12:52:33;;;;;;;1.67;1.30;;;6.20;98.20;;;;;;5021943;28;20522;-82
2020/12/24 12:55:00;;;;;;;1.70;1.30;;;6.20;98.20;;;;;;5029789;28;20479;-78
2020/12/24 12:57:26;;;;;;;1.60;1.30;;;6.30;98.20;;;;;;5025642;28;20522;-79
2020/12/24 12:59:53;;;;;;;1.70;1.40;;;6.30;98.20;;;;;;5023042;28;20813;-78
2020/12/24 13:02:20;;;;;;;1.67;1.40;;;6.30;98.20;;;;;;5023769;28;20574;-80
2020/12/24 13:04:46;;;;;;;1.67;1.30;;;6.30;98.20;;;;;;5023907;28;20491;-79
2020/12/24 13:07:13;;;;;;;1.67;1.33;;;6.30;98.20;;;;;;5018920;28;20617;-80
2020/12/24 13:09:39;;;;;;;1.60;1.20;;;6.30;98.20;;;;;;5025804;28;20471;-79
2020/12/24 13:12:06;;;;;;;1.70;1.40;;;6.30;98.20;;;;;;5022114;28;21287;-79